McCarr, Kentucky
Current Conditions -  °F | °C
As of 9:35 AM on Friday 31 Oct 2014 (Local Time) from KPBX Reporting Station
Haze Haze  
Wind Chill: 34°   Ceiling: 4800
Heat Index: 37°   Visibility: 5mi
Dew Point: 37°   Wind: 5mph
Humidity: 98%   Direction: 180°S
Pressure: 29.97"   Gusts: NA
Location:  37.61°N, 82.17°W
Report Text: KPBX 311335Z AUTO 18004KT 5SM BR OVC048 03/03 A2997 RMK AO2 T00300027
Loading
Personal Weather Stations






























Interactive Weather Map
Tropical Storm Tracking
New forecast layout! Learn more

10-Day Weather Forecast

Advertisements
Track Severe Weather on mobile